createdAt,value
2018-11-03T00:00:00.226Z,7.61
2018-11-03T00:00:59.956Z,7.75
2018-11-03T00:01:59.946Z,7.59
2018-11-03T00:02:59.927Z,7.58
2018-11-03T00:03:59.918Z,7.64
2018-11-03T00:04:59.637Z,7.58
2018-11-03T00:06:00.163Z,7.58
2018-11-03T00:07:00.152Z,7.68
2018-11-03T00:07:59.867Z,7.58
2018-11-03T00:09:00.127Z,7.59
2018-11-03T00:09:59.574Z,7.63
2018-11-03T00:11:00.111Z,7.59
2018-11-03T00:12:00.101Z,7.59
2018-11-03T00:12:59.800Z,7.61
2018-11-03T00:13:59.794Z,7.59
2018-11-03T00:15:00.378Z,7.67
2018-11-03T00:15:59.497Z,7.56
2018-11-03T00:17:00.038Z,7.61
2018-11-03T00:18:00.003Z,7.59
2018-11-03T00:18:59.460Z,7.58
2018-11-03T00:19:59.985Z,7.64
2018-11-03T00:20:59.979Z,7.63
2018-11-03T00:21:59.965Z,7.64
2018-11-03T00:22:59.985Z,7.64
2018-11-03T00:24:00.113Z,7.61
2018-11-03T00:24:59.673Z,7.63
2018-11-03T00:25:59.636Z,7.73
2018-11-03T00:26:59.628Z,7.73
2018-11-03T00:27:59.613Z,7.78
2018-11-03T00:28:59.336Z,7.73
2018-11-03T00:29:59.581Z,7.71
2018-11-03T00:30:59.571Z,7.78
2018-11-03T00:31:59.560Z,7.64
2018-11-03T00:32:59.818Z,7.64
2018-11-03T00:34:00.097Z,7.77
2018-11-03T00:34:59.257Z,7.68
2018-11-03T00:35:59.513Z,7.74
2018-11-03T00:36:59.500Z,7.73
2018-11-03T00:37:59.740Z,7.64
2018-11-03T00:38:59.471Z,7.61
2018-11-03T00:39:59.202Z,7.63
2018-11-03T00:40:59.443Z,7.59
2018-11-03T00:41:59.176Z,7.64
2018-11-03T00:42:59.818Z,7.63
2018-11-03T00:43:59.940Z,7.63
2018-11-03T00:44:59.659Z,7.63
2018-11-03T00:45:59.656Z,7.64
2018-11-03T00:46:59.377Z,7.58
2018-11-03T00:47:59.619Z,7.63
2018-11-03T00:48:59.389Z,7.61
2018-11-03T00:49:59.478Z,7.64
2018-11-03T00:50:59.586Z,7.58
2018-11-03T00:51:59.564Z,7.61
2018-11-03T00:52:59.568Z,7.64
2018-11-03T00:53:59.769Z,7.59
2018-11-03T00:54:59.553Z,7.55
2018-11-03T00:55:59.255Z,7.64
2018-11-03T00:56:59.242Z,7.58
2018-11-03T00:57:59.491Z,7.59
2018-11-03T00:58:59.212Z,7.63
2018-11-03T00:59:59.466Z,7.58
2018-11-03T01:00:59.452Z,7.58
2018-11-03T01:01:58.917Z,7.49
2018-11-03T01:02:58.908Z,7.54
2018-11-03T01:03:59.161Z,7.52
2018-11-03T01:04:59.143Z,7.44
2018-11-03T01:05:59.161Z,7.51
2018-11-03T01:06:59.116Z,7.51
2018-11-03T01:07:59.106Z,7.54
2018-11-03T01:08:59.350Z,7.52
2018-11-03T01:09:59.346Z,7.49
2018-11-03T01:10:59.065Z,7.47
2018-11-03T01:11:59.313Z,7.49
2018-11-03T01:12:59.038Z,7.56
2018-11-03T01:13:59.194Z,7.52
2018-11-03T01:14:59.285Z,7.55
2018-11-03T01:15:58.738Z,7.47
2018-11-03T01:16:58.725Z,7.49
2018-11-03T01:17:59.314Z,7.49
2018-11-03T01:18:58.965Z,7.49
2018-11-03T01:19:59.216Z,7.54
2018-11-03T01:20:58.939Z,7.56
2018-11-03T01:21:58.922Z,7.54
2018-11-03T01:22:59.171Z,7.45
2018-11-03T01:23:58.636Z,7.48
2018-11-03T01:24:58.891Z,7.48
2018-11-03T01:25:58.882Z,7.51
2018-11-03T01:26:59.128Z,7.47
2018-11-03T01:27:58.582Z,7.45
2018-11-03T01:28:59.101Z,7.52
2018-11-03T01:29:59.088Z,7.49
2018-11-03T01:30:58.813Z,7.39
2018-11-03T01:31:59.063Z,7.44
2018-11-03T01:32:58.519Z,7.45
2018-11-03T01:33:58.960Z,7.41
2018-11-03T01:34:58.760Z,7.41
2018-11-03T01:35:58.480Z,7.44
2018-11-03T01:36:58.997Z,7.44
2018-11-03T01:37:58.992Z,7.48
2018-11-03T01:38:58.441Z,7.48
2018-11-03T01:39:58.961Z,7.41
2018-11-03T01:40:58.684Z,7.45
2018-11-03T01:41:58.662Z,7.51
2018-11-03T01:42:58.656Z,7.44
2018-11-03T01:43:59.180Z,7.52
2018-11-03T01:44:58.662Z,7.44
2018-11-03T01:45:58.624Z,7.47
2018-11-03T01:46:58.606Z,7.36
2018-11-03T01:47:58.586Z,7.41
2018-11-03T01:48:58.578Z,7.41
2018-11-03T01:49:58.567Z,7.39
2018-11-03T01:50:58.551Z,7.41
2018-11-03T01:51:58.541Z,7.45
2018-11-03T01:52:58.783Z,7.39
2018-11-03T01:53:58.986Z,7.39
2018-11-03T01:54:58.763Z,7.41
2018-11-03T01:55:58.753Z,7.39
2018-11-03T01:56:58.732Z,7.45
2018-11-03T01:57:58.462Z,7.39
2018-11-03T01:58:58.711Z,7.41
2018-11-03T01:59:58.437Z,7.4
2018-11-03T02:00:58.686Z,7.37
2018-11-03T02:01:58.414Z,7.3
2018-11-03T02:02:58.682Z,7.34
2018-11-03T02:03:58.851Z,7.36
2018-11-03T02:04:58.419Z,7.39
2018-11-03T02:05:58.615Z,7.34
2018-11-03T02:06:58.347Z,7.37
2018-11-03T02:07:58.633Z,7.34
2018-11-03T02:08:58.576Z,7.26
2018-11-03T02:09:58.313Z,7.27
2018-11-03T02:10:58.289Z,7.27
2018-11-03T02:11:58.282Z,7.22
2018-11-03T02:12:58.533Z,7.23
2018-11-03T02:13:57.989Z,7.16
2018-11-03T02:14:58.544Z,7.19
2018-11-03T02:15:57.962Z,7.21
2018-11-03T02:16:58.220Z,7.15
2018-11-03T02:17:58.197Z,7.15
2018-11-03T02:18:58.185Z,7.15
2018-11-03T02:19:57.910Z,7.13
2018-11-03T02:20:57.936Z,7.13
2018-11-03T02:21:58.410Z,7.11
2018-11-03T02:22:58.396Z,7.03
2018-11-03T02:23:58.120Z,7.08
2018-11-03T02:24:58.766Z,7.04
2018-11-03T02:25:58.368Z,7.01
2018-11-03T02:26:58.082Z,7.01
2018-11-03T02:27:58.072Z,7.03
2018-11-03T02:28:58.050Z,7
2018-11-03T02:29:58.039Z,7.03
2018-11-03T02:30:58.293Z,7.01
2018-11-03T02:32:29.847Z,6.95
2018-11-03T02:32:58.266Z,6.93
2018-11-03T02:33:57.985Z,6.86
2018-11-03T02:34:58.159Z,6.91
2018-11-03T02:35:57.696Z,6.94
2018-11-03T02:36:57.965Z,6.86
2018-11-03T02:37:58.201Z,6.86
2018-11-03T02:38:57.926Z,6.91
2018-11-03T02:39:58.176Z,6.9
2018-11-03T02:40:57.630Z,6.9
2018-11-03T02:41:58.156Z,6.91
2018-11-03T02:42:58.130Z,6.85
2018-11-03T02:43:58.112Z,6.9
2018-11-03T02:44:58.604Z,6.9
2018-11-03T02:45:58.125Z,6.88
2018-11-03T02:46:57.549Z,6.9
2018-11-03T02:47:57.796Z,6.94
2018-11-03T02:48:57.791Z,6.91
2018-11-03T02:49:58.045Z,6.9
2018-11-03T02:50:57.757Z,7.01
2018-11-03T02:51:57.752Z,6.94
2018-11-03T02:52:58.003Z,7
2018-11-03T02:53:57.725Z,6.91
2018-11-03T02:54:58.196Z,6.83
2018-11-03T02:55:57.430Z,6.86
2018-11-03T02:56:57.687Z,6.95
2018-11-03T02:57:57.927Z,6.86
2018-11-03T02:58:57.699Z,6.9
2018-11-03T02:59:57.904Z,6.93
2018-11-03T03:00:57.371Z,6.88
2018-11-03T03:01:57.613Z,6.86
2018-11-03T03:02:57.605Z,6.91
2018-11-03T03:03:57.586Z,6.85
2018-11-03T03:04:57.310Z,6.8
2018-11-03T03:05:57.829Z,6.86
2018-11-03T03:06:57.802Z,6.78
2018-11-03T03:07:57.802Z,6.82
2018-11-03T03:08:57.517Z,6.78
2018-11-03T03:09:57.765Z,6.72
2018-11-03T03:10:57.748Z,6.68
2018-11-03T03:11:57.478Z,6.7
2018-11-03T03:12:57.488Z,6.65
2018-11-03T03:13:57.721Z,6.7
2018-11-03T03:14:57.675Z,6.51
2018-11-03T03:15:57.159Z,6.54
2018-11-03T03:16:57.406Z,6.64
2018-11-03T03:17:57.662Z,6.57
2018-11-03T03:18:57.648Z,6.54
2018-11-03T03:19:57.659Z,6.65
2018-11-03T03:20:57.619Z,6.55
2018-11-03T03:21:57.606Z,6.54
2018-11-03T03:22:57.325Z,6.64
2018-11-03T03:23:57.312Z,6.58
2018-11-03T03:24:57.037Z,6.55
2018-11-03T03:25:57.539Z,6.58
2018-11-03T03:26:57.575Z,6.52
2018-11-03T03:27:57.519Z,6.55
2018-11-03T03:28:57.574Z,6.57
2018-11-03T03:29:57.515Z,6.52
2018-11-03T03:30:56.960Z,6.54
2018-11-03T03:31:57.205Z,6.55
2018-11-03T03:32:56.934Z,6.52
2018-11-03T03:33:57.177Z,6.46
2018-11-03T03:34:57.899Z,6.52
2018-11-03T03:35:57.417Z,6.49
2018-11-03T03:36:57.405Z,6.55
2018-11-03T03:37:57.177Z,6.52
2018-11-03T03:38:57.375Z,6.52
2018-11-03T03:39:56.833Z,6.54
2018-11-03T03:40:56.819Z,6.46
2018-11-03T03:41:57.074Z,6.54
2018-11-03T03:42:57.316Z,6.44
2018-11-03T03:43:57.037Z,6.46
2018-11-03T03:44:56.763Z,6.43
2018-11-03T03:45:57.284Z,6.47
2018-11-03T03:46:57.262Z,6.42
2018-11-03T03:47:57.249Z,6.44
2018-11-03T03:48:56.714Z,6.55
2018-11-03T03:49:57.224Z,6.46
2018-11-03T03:50:56.941Z,6.46
2018-11-03T03:51:57.188Z,6.54
2018-11-03T03:52:56.924Z,6.52
2018-11-03T03:53:56.911Z,6.51
2018-11-03T03:54:57.177Z,6.55
2018-11-03T03:55:57.147Z,6.54
2018-11-03T03:56:56.597Z,6.57
2018-11-03T03:57:56.847Z,6.39
2018-11-03T03:58:56.830Z,6.46
2018-11-03T03:59:56.553Z,6.54
2018-11-03T04:00:56.810Z,6.54
2018-11-03T04:01:56.798Z,6.55
2018-11-03T04:02:56.783Z,6.55
2018-11-03T04:03:56.767Z,6.57
2018-11-03T04:04:56.754Z,6.54
2018-11-03T04:05:56.736Z,6.47
2018-11-03T04:06:56.719Z,6.55
2018-11-03T04:07:56.975Z,6.49
2018-11-03T04:08:56.694Z,6.54
2018-11-03T04:09:56.962Z,6.52
2018-11-03T04:10:56.666Z,6.49
2018-11-03T04:11:56.390Z,6.44
2018-11-03T04:12:56.900Z,6.55
2018-11-03T04:13:56.810Z,6.51
2018-11-03T04:14:57.012Z,6.44
2018-11-03T04:15:56.868Z,6.49
2018-11-03T04:16:56.889Z,6.44
2018-11-03T04:17:56.890Z,6.52
2018-11-03T04:18:56.847Z,6.47
2018-11-03T04:19:56.824Z,6.54
2018-11-03T04:20:56.567Z,6.54
2018-11-03T04:21:56.788Z,6.44
2018-11-03T04:22:56.502Z,6.43
2018-11-03T04:23:56.773Z,6.42
2018-11-03T04:24:56.475Z,6.47
2018-11-03T04:25:56.724Z,6.43
2018-11-03T04:26:56.453Z,6.43
2018-11-03T04:27:56.434Z,6.43
2018-11-03T04:28:56.420Z,6.44
2018-11-03T04:29:56.671Z,6.43
2018-11-03T04:30:56.399Z,6.43
2018-11-03T04:31:56.390Z,6.46
2018-11-03T04:32:56.361Z,6.39
2018-11-03T04:33:56.348Z,6.44
2018-11-03T04:34:56.343Z,6.42
2018-11-03T04:35:56.585Z,6.42
2018-11-03T04:36:56.044Z,6.47
2018-11-03T04:37:56.569Z,6.51
2018-11-03T04:38:56.018Z,6.42
2018-11-03T04:39:56.531Z,6.44
2018-11-03T04:40:56.256Z,6.44
2018-11-03T04:41:56.240Z,6.49
2018-11-03T04:42:56.220Z,6.49
2018-11-03T04:43:56.770Z,6.54
2018-11-03T04:44:56.204Z,6.61
2018-11-03T04:45:56.450Z,6.42
2018-11-03T04:46:56.221Z,6.54
2018-11-03T04:47:56.432Z,6.55
2018-11-03T04:48:56.408Z,6.55
2018-11-03T04:49:56.131Z,6.52
2018-11-03T04:50:55.854Z,6.55
2018-11-03T04:51:56.102Z,6.49
2018-11-03T04:52:56.456Z,6.52
2018-11-03T04:53:56.626Z,6.52
2018-11-03T04:54:56.549Z,6.58
2018-11-03T04:55:56.049Z,6.51
2018-11-03T04:56:56.037Z,6.55
2018-11-03T04:57:56.320Z,6.6
2018-11-03T04:58:56.013Z,6.58
2018-11-03T04:59:56.255Z,6.6
2018-11-03T05:00:55.980Z,6.57
2018-11-03T05:01:55.969Z,6.67
2018-11-03T05:02:56.316Z,6.62
2018-11-03T05:03:56.209Z,6.64
2018-11-03T05:04:55.921Z,6.57
2018-11-03T05:05:55.907Z,6.6
2018-11-03T05:06:55.898Z,6.52
2018-11-03T05:07:55.878Z,6.54
2018-11-03T05:08:56.141Z,6.52
2018-11-03T05:09:55.628Z,6.6
2018-11-03T05:10:55.840Z,6.55
2018-11-03T05:11:56.082Z,6.54
2018-11-03T05:12:55.552Z,6.52
2018-11-03T05:13:56.356Z,6.54
2018-11-03T05:14:55.786Z,6.61
2018-11-03T05:15:55.775Z,6.61
2018-11-03T05:16:56.073Z,6.64
2018-11-03T05:17:55.744Z,6.55
2018-11-03T05:18:55.732Z,6.61
2018-11-03T05:19:55.996Z,6.62
2018-11-03T05:20:55.709Z,6.6
2018-11-03T05:21:55.963Z,6.58
2018-11-03T05:22:55.413Z,6.58
2018-11-03T05:23:56.317Z,6.62
2018-11-03T05:24:55.925Z,6.6
2018-11-03T05:25:55.911Z,6.58
2018-11-03T05:26:55.879Z,6.51
2018-11-03T05:27:55.346Z,6.55
2018-11-03T05:28:55.591Z,6.58
2018-11-03T05:29:55.584Z,6.61
2018-11-03T05:30:55.720Z,6.58
2018-11-03T05:31:55.835Z,6.58
2018-11-03T05:32:55.802Z,6.55
2018-11-03T05:33:55.536Z,6.54
2018-11-03T05:34:55.252Z,6.49
2018-11-03T05:35:55.495Z,6.46
2018-11-03T05:36:55.492Z,6.57
2018-11-03T05:37:55.475Z,6.49
2018-11-03T05:38:55.496Z,6.39
2018-11-03T05:39:55.704Z,6.46
2018-11-03T05:40:55.710Z,6.44
2018-11-03T05:41:55.422Z,6.43
2018-11-03T05:42:55.664Z,6.42
2018-11-03T05:43:55.991Z,6.46
2018-11-03T05:44:55.632Z,6.43
2018-11-03T05:45:55.620Z,6.42
2018-11-03T05:46:55.612Z,6.51
2018-11-03T05:47:55.649Z,6.43
2018-11-03T05:48:55.320Z,6.39
2018-11-03T05:49:55.307Z,6.4
2018-11-03T05:50:55.028Z,6.44
2018-11-03T05:51:55.288Z,6.39
2018-11-03T05:52:55.556Z,6.39
2018-11-03T05:53:56.017Z,6.26
2018-11-03T05:54:55.237Z,6.25
2018-11-03T05:55:55.224Z,6.25
2018-11-03T05:56:55.518Z,6.34
2018-11-03T05:57:55.483Z,6.37
2018-11-03T05:58:55.374Z,6.36
2018-11-03T05:59:55.168Z,6.31
2018-11-03T06:00:55.169Z,6.36
2018-11-03T06:01:55.400Z,6.33
2018-11-03T06:02:55.452Z,6.28
2018-11-03T06:03:55.675Z,6.28
2018-11-03T06:04:55.360Z,6.31
2018-11-03T06:05:55.081Z,6.31
2018-11-03T06:06:55.066Z,6.31
2018-11-03T06:07:54.790Z,6.29
2018-11-03T06:08:55.753Z,6.29
2018-11-03T06:09:55.292Z,6.26
2018-11-03T06:10:55.271Z,6.29
2018-11-03T06:11:55.017Z,6.26
2018-11-03T06:12:54.989Z,6.25
2018-11-03T06:13:55.493Z,6.29
2018-11-03T06:14:54.956Z,6.17
2018-11-03T06:15:54.677Z,6.28
2018-11-03T06:16:55.187Z,6.26
2018-11-03T06:17:55.183Z,6.17
2018-11-03T06:18:54.902Z,6.25
2018-11-03T06:19:54.622Z,6.21
2018-11-03T06:20:54.895Z,6.28
2018-11-03T06:21:54.865Z,6.24
2018-11-03T06:22:54.596Z,6.25
2018-11-03T06:23:55.357Z,6.21
2018-11-03T06:24:54.824Z,6.25
2018-11-03T06:25:54.798Z,6.24
2018-11-03T06:26:55.052Z,6.2
2018-11-03T06:27:54.893Z,6.24
2018-11-03T06:28:54.495Z,6.17
2018-11-03T06:29:55.010Z,6.28
2018-11-03T06:30:54.995Z,6.2
2018-11-03T06:31:54.992Z,6.31
2018-11-03T06:32:54.992Z,6.24
2018-11-03T06:33:55.119Z,6.28
2018-11-03T06:34:54.674Z,6.26
2018-11-03T06:35:54.928Z,6.28
2018-11-03T06:36:54.909Z,6.31
2018-11-03T06:37:54.642Z,6.29
2018-11-03T06:38:55.149Z,6.28
2018-11-03T06:39:54.607Z,6.31
2018-11-03T06:40:54.853Z,6.37
2018-11-03T06:41:54.606Z,6.34
2018-11-03T06:42:54.820Z,6.36
2018-11-03T06:43:54.990Z,6.47
2018-11-03T06:44:54.533Z,6.4
2018-11-03T06:45:54.819Z,6.51
2018-11-03T06:46:54.506Z,6.54
2018-11-03T06:47:54.256Z,6.57
2018-11-03T06:48:54.473Z,6.6
2018-11-03T06:49:54.500Z,6.61
2018-11-03T06:50:54.710Z,6.67
2018-11-03T06:51:54.441Z,6.72
2018-11-03T06:52:54.688Z,6.73
2018-11-03T06:53:54.412Z,6.8
2018-11-03T06:54:54.695Z,6.79
2018-11-03T06:55:54.407Z,6.8
2018-11-03T06:56:54.104Z,6.78
2018-11-03T06:57:54.617Z,6.9
2018-11-03T06:58:54.345Z,6.85
2018-11-03T06:59:54.325Z,6.9
2018-11-03T07:00:54.312Z,6.82
2018-11-03T07:01:54.303Z,6.83
2018-11-03T07:02:54.022Z,6.88
2018-11-03T07:03:54.269Z,6.94
2018-11-03T07:04:54.292Z,6.98
2018-11-03T07:05:54.513Z,6.97
2018-11-03T07:06:54.501Z,6.98
2018-11-03T07:07:54.218Z,6.86
2018-11-03T07:08:54.470Z,6.9
2018-11-03T07:09:54.190Z,7.04
2018-11-03T07:10:54.511Z,7.01
2018-11-03T07:11:54.307Z,6.98
2018-11-03T07:12:54.988Z,6.98
2018-11-03T07:13:53.873Z,6.98
2018-11-03T07:14:53.858Z,7.05
2018-11-03T07:15:54.109Z,7
2018-11-03T07:16:54.369Z,7.01
2018-11-03T07:17:54.338Z,7.04
2018-11-03T07:18:54.067Z,7.04
2018-11-03T07:19:53.790Z,7.05
2018-11-03T07:20:54.040Z,7.04
2018-11-03T07:21:54.921Z,7.09
2018-11-03T07:22:54.278Z,7.01
2018-11-03T07:23:54.064Z,7.05
2018-11-03T07:24:54.250Z,7.05
2018-11-03T07:25:53.709Z,7.08
2018-11-03T07:26:53.959Z,6.98
2018-11-03T07:27:53.951Z,7.09
2018-11-03T07:28:53.669Z,7.04
2018-11-03T07:29:54.896Z,7.05
2018-11-03T07:30:53.642Z,7.04
2018-11-03T07:31:53.953Z,7.09
2018-11-03T07:32:54.142Z,7.13
2018-11-03T07:33:53.862Z,7.18
2018-11-03T07:34:53.861Z,7.19
2018-11-03T07:35:53.836Z,7.18
2018-11-03T07:36:53.820Z,7.27
2018-11-03T07:37:53.822Z,7.21
2018-11-03T07:38:54.068Z,7.26
2018-11-03T07:39:54.066Z,7.21
2018-11-03T07:40:53.937Z,7.3
2018-11-03T07:41:53.767Z,7.23
2018-11-03T07:42:54.573Z,7.27
2018-11-03T07:43:53.738Z,7.31
2018-11-03T07:44:53.714Z,7.34
2018-11-03T07:45:53.975Z,7.33
2018-11-03T07:46:53.424Z,7.36
2018-11-03T07:47:54.056Z,7.34
2018-11-03T07:48:54.032Z,7.41
2018-11-03T07:49:53.955Z,7.39
2018-11-03T07:50:53.943Z,7.39
2018-11-03T07:51:53.880Z,7.31
2018-11-03T07:52:54.188Z,7.27
2018-11-03T07:53:53.598Z,7.29
2018-11-03T07:54:54.363Z,7.22
2018-11-03T07:55:53.848Z,7.23
2018-11-03T07:56:53.826Z,7.21
2018-11-03T07:57:53.842Z,7.18
2018-11-03T07:58:53.810Z,7.19
2018-11-03T07:59:53.789Z,7.18
2018-11-03T08:00:53.510Z,7.26
2018-11-03T08:01:53.699Z,7.21
2018-11-03T08:02:53.741Z,7.19
2018-11-03T08:03:53.465Z,7.23
2018-11-03T08:04:53.716Z,7.23
2018-11-03T08:05:53.701Z,7.19
2018-11-03T08:06:53.425Z,7.23
2018-11-03T08:07:53.700Z,7.21
2018-11-03T08:08:53.596Z,7.23
2018-11-03T08:09:53.647Z,7.22
2018-11-03T08:10:53.630Z,7.21
2018-11-03T08:11:54.109Z,7.19
2018-11-03T08:12:53.345Z,7.16
2018-11-03T08:13:53.328Z,7.18
2018-11-03T08:14:53.339Z,7.21
2018-11-03T08:15:54.020Z,7.21
2018-11-03T08:16:53.557Z,7.22
2018-11-03T08:17:53.627Z,7.16
2018-11-03T08:18:53.331Z,7.16
2018-11-03T08:19:53.506Z,7.15
2018-11-03T08:20:53.237Z,7.16
2018-11-03T08:21:53.532Z,7.19
2018-11-03T08:22:53.209Z,7.18
2018-11-03T08:23:53.799Z,7.12
2018-11-03T08:24:53.444Z,7.16
2018-11-03T08:25:53.436Z,7.16
2018-11-03T08:26:53.335Z,7.16
2018-11-03T08:27:53.402Z,7.26
2018-11-03T08:28:53.428Z,7.3
2018-11-03T08:29:53.380Z,7.22
2018-11-03T08:30:53.366Z,7.16
2018-11-03T08:31:52.865Z,7.27
2018-11-03T08:32:53.341Z,7.23
2018-11-03T08:33:53.060Z,7.22
2018-11-03T08:34:53.059Z,7.21
2018-11-03T08:35:53.087Z,7.27
2018-11-03T08:36:53.288Z,7.29
2018-11-03T08:37:53.307Z,7.36
2018-11-03T08:38:53.008Z,7.36
2018-11-03T08:39:52.985Z,7.34
2018-11-03T08:40:53.232Z,7.37
2018-11-03T08:41:53.417Z,7.41
2018-11-03T08:42:53.050Z,7.52
2018-11-03T08:43:52.936Z,7.44
2018-11-03T08:44:52.986Z,7.47
2018-11-03T08:45:53.170Z,7.51
2018-11-03T08:46:52.897Z,7.55
2018-11-03T08:47:52.613Z,7.56
2018-11-03T08:48:53.086Z,7.7
2018-11-03T08:49:52.854Z,7.59
2018-11-03T08:50:53.100Z,7.71
2018-11-03T08:51:53.145Z,7.75
2018-11-03T08:52:52.546Z,7.7
2018-11-03T08:53:52.797Z,7.78
2018-11-03T08:54:52.521Z,7.78
2018-11-03T08:55:53.034Z,7.88
2018-11-03T08:56:53.080Z,7.95
2018-11-03T08:57:53.017Z,7.99
2018-11-03T08:58:52.745Z,7.98
2018-11-03T08:59:53.764Z,8.1
2018-11-03T09:00:52.443Z,8.04
2018-11-03T09:01:52.698Z,8.04
2018-11-03T09:02:52.950Z,8.04
2018-11-03T09:03:52.405Z,8.06
2018-11-03T09:04:52.393Z,8.04
2018-11-03T09:05:52.651Z,8.1
2018-11-03T09:06:52.431Z,8.06
2018-11-03T09:07:52.893Z,8.04
2018-11-03T09:08:52.611Z,8.1
2018-11-03T09:09:52.633Z,8.14
2018-11-03T09:10:52.315Z,8.16
2018-11-03T09:11:52.567Z,8.16
2018-11-03T09:12:53.305Z,8.22
2018-11-03T09:13:52.807Z,8.19
2018-11-03T09:14:52.880Z,8.26
2018-11-03T09:15:52.520Z,8.34
2018-11-03T09:16:52.241Z,8.22
2018-11-03T09:17:52.518Z,8.29
2018-11-03T09:18:52.480Z,8.21
2018-11-03T09:19:52.725Z,8.31
2018-11-03T09:20:52.714Z,8.36
2018-11-03T09:21:52.853Z,8.43
2018-11-03T09:22:52.486Z,8.52
2018-11-03T09:23:52.680Z,8.61
2018-11-03T09:24:52.402Z,8.64
2018-11-03T09:25:52.759Z,8.71
2018-11-03T09:26:52.671Z,8.64
2018-11-03T09:27:52.638Z,8.68
2018-11-03T09:28:52.616Z,8.61
2018-11-03T09:29:52.605Z,8.61
2018-11-03T09:30:52.342Z,8.62
2018-11-03T09:31:52.413Z,8.69
2018-11-03T09:32:52.899Z,8.71
2018-11-03T09:33:52.551Z,8.72
2018-11-03T09:34:52.483Z,8.8
2018-11-03T09:35:52.534Z,8.71
2018-11-03T09:36:52.530Z,8.8
2018-11-03T09:37:52.534Z,8.86
2018-11-03T09:38:52.851Z,8.83
2018-11-03T09:39:52.503Z,8.98
2018-11-03T09:40:52.472Z,8.9
2018-11-03T09:41:52.455Z,9
2018-11-03T09:42:52.721Z,8.97
2018-11-03T09:43:52.174Z,8.97
2018-11-03T09:44:52.512Z,9.03
2018-11-03T09:45:52.147Z,9.09
2018-11-03T09:46:52.136Z,9.05
2018-11-03T09:47:52.394Z,9.14
2018-11-03T09:48:52.112Z,9.16
2018-11-03T09:49:51.837Z,9.05
2018-11-03T09:50:52.272Z,9.16
2018-11-03T09:51:52.347Z,9.2
2018-11-03T09:52:52.068Z,9.2
2018-11-03T09:53:52.329Z,9.3
2018-11-03T09:54:52.044Z,9.14
2018-11-03T09:55:52.028Z,9.17
2018-11-03T09:56:52.525Z,9.08
2018-11-03T09:57:52.273Z,9.12
2018-11-03T09:58:52.090Z,9.17
2018-11-03T09:59:51.979Z,9.19
2018-11-03T10:00:52.231Z,9.14
2018-11-03T10:01:51.693Z,9.21
2018-11-03T10:02:52.214Z,9.2
2018-11-03T10:03:51.947Z,9.19
2018-11-03T10:04:51.926Z,9.35
2018-11-03T10:05:52.213Z,9.32
2018-11-03T10:06:52.180Z,9.38
2018-11-03T10:07:51.895Z,9.32
2018-11-03T10:08:52.143Z,9.5
2018-11-03T10:09:51.870Z,9.5
2018-11-03T10:10:52.118Z,9.47
2018-11-03T10:11:52.106Z,9.52
2018-11-03T10:12:52.096Z,9.47
2018-11-03T10:13:52.593Z,9.63
2018-11-03T10:14:51.810Z,9.57
2018-11-03T10:15:52.047Z,9.66
2018-11-03T10:16:52.060Z,9.7
2018-11-03T10:17:52.047Z,9.75
2018-11-03T10:18:51.524Z,9.78
2018-11-03T10:19:52.016Z,9.77
2018-11-03T10:20:52.001Z,9.71
2018-11-03T10:21:51.991Z,9.78
2018-11-03T10:22:51.944Z,9.74
2018-11-03T10:23:51.991Z,9.7
2018-11-03T10:24:51.478Z,9.77
2018-11-03T10:25:51.682Z,9.71
2018-11-03T10:26:51.669Z,9.7
2018-11-03T10:27:51.397Z,9.67
2018-11-03T10:28:51.659Z,9.63
2018-11-03T10:29:51.900Z,9.7
2018-11-03T10:30:51.627Z,9.7
2018-11-03T10:31:51.613Z,9.72
2018-11-03T10:32:51.650Z,9.55
2018-11-03T10:33:52.882Z,9.63
2018-11-03T10:34:51.846Z,9.48
2018-11-03T10:35:51.836Z,9.44
2018-11-03T10:36:51.889Z,9.48
2018-11-03T10:37:51.546Z,9.5
2018-11-03T10:38:51.535Z,9.47
2018-11-03T10:39:51.817Z,9.52
2018-11-03T10:40:51.793Z,9.5
2018-11-03T10:41:51.501Z,9.52
2018-11-03T10:42:51.768Z,9.47
2018-11-03T10:43:52.232Z,9.44
2018-11-03T10:44:51.728Z,9.55
2018-11-03T10:45:51.466Z,9.47
2018-11-03T10:46:51.445Z,9.45
2018-11-03T10:47:51.438Z,9.47
2018-11-03T10:48:51.685Z,9.56
2018-11-03T10:49:51.417Z,9.48
2018-11-03T10:50:51.668Z,9.44
2018-11-03T10:51:51.672Z,9.48
2018-11-03T10:52:51.643Z,9.48
2018-11-03T10:53:52.242Z,9.57
2018-11-03T10:54:51.618Z,9.66
2018-11-03T10:55:51.625Z,9.66
2018-11-03T10:56:51.329Z,9.77
2018-11-03T10:57:51.068Z,9.78
2018-11-03T10:58:51.312Z,9.82
2018-11-03T10:59:51.035Z,9.78
2018-11-03T11:00:51.579Z,9.8
2018-11-03T11:01:51.296Z,9.81
2018-11-03T11:02:51.265Z,9.78
2018-11-03T11:03:51.936Z,9.72
2018-11-03T11:04:51.238Z,9.66
2018-11-03T11:05:51.538Z,9.74
2018-11-03T11:06:51.226Z,9.71
2018-11-03T11:07:51.476Z,9.8
2018-11-03T11:08:51.476Z,9.81
2018-11-03T11:09:51.457Z,9.92
2018-11-03T11:10:51.178Z,9.88
2018-11-03T11:11:51.429Z,9.92
2018-11-03T11:12:51.168Z,9.93
2018-11-03T11:13:51.422Z,9.93
2018-11-03T11:14:51.601Z,9.98
2018-11-03T11:15:51.328Z,9.96
2018-11-03T11:16:51.718Z,9.95
2018-11-03T11:17:51.099Z,10
2018-11-03T11:18:51.088Z,9.99
2018-11-03T11:19:50.811Z,10.03
2018-11-03T11:20:51.331Z,10.05
2018-11-03T11:21:51.318Z,10.1
2018-11-03T11:22:51.316Z,10.05
2018-11-03T11:23:51.514Z,10.1
2018-11-03T11:24:50.872Z,10.05
2018-11-03T11:25:50.751Z,10
2018-11-03T11:26:51.317Z,10.02
2018-11-03T11:27:51.257Z,10.03
2018-11-03T11:28:51.092Z,9.99
2018-11-03T11:29:50.968Z,9.93
2018-11-03T11:30:51.233Z,9.95
2018-11-03T11:31:50.946Z,9.98
2018-11-03T11:32:51.247Z,9.99
2018-11-03T11:33:51.198Z,9.92
2018-11-03T11:34:50.652Z,9.8
2018-11-03T11:35:50.641Z,9.75
2018-11-03T11:36:50.884Z,9.8
2018-11-03T11:37:50.889Z,9.74
2018-11-03T11:38:51.139Z,9.74
2018-11-03T11:39:50.866Z,9.78
2018-11-03T11:40:50.843Z,9.78
2018-11-03T11:41:51.103Z,9.71
2018-11-03T11:42:50.872Z,9.7
2018-11-03T11:43:50.815Z,9.64
2018-11-03T11:44:51.160Z,9.56
2018-11-03T11:45:51.052Z,9.63
2018-11-03T11:46:51.044Z,9.62
2018-11-03T11:47:51.067Z,9.59
2018-11-03T11:48:51.012Z,9.59
2018-11-03T11:49:51.008Z,9.47
2018-11-03T11:50:50.735Z,9.45
2018-11-03T11:51:50.984Z,9.47
2018-11-03T11:52:50.713Z,9.45
2018-11-03T11:53:50.973Z,9.41
2018-11-03T11:54:51.077Z,9.29
2018-11-03T11:55:50.941Z,9.38
2018-11-03T11:56:50.954Z,9.29
2018-11-03T11:57:50.924Z,9.34
2018-11-03T11:58:50.382Z,9.34
2018-11-03T11:59:50.372Z,9.3
2018-11-03T12:00:51.510Z,9.29
2018-11-03T12:01:50.622Z,9.12
2018-11-03T12:02:51.007Z,9.34
2018-11-03T12:03:51.212Z,9.32
2018-11-03T12:04:50.842Z,9.37
2018-11-03T12:05:50.301Z,9.29
2018-11-03T12:06:50.556Z,9.27
2018-11-03T12:07:50.801Z,9.26
2018-11-03T12:08:50.789Z,9.24
2018-11-03T12:09:50.570Z,9.11
2018-11-03T12:10:50.506Z,9.11
2018-11-03T12:11:50.496Z,9.03
2018-11-03T12:12:50.745Z,9.11
2018-11-03T12:13:50.690Z,9.05
2018-11-03T12:14:50.730Z,9.01
2018-11-03T12:15:50.191Z,9.03
2018-11-03T12:16:50.698Z,9.04
2018-11-03T12:17:50.437Z,9.08
2018-11-03T12:18:50.153Z,9.11
2018-11-03T12:19:50.404Z,9.14
2018-11-03T12:20:50.457Z,9.05
2018-11-03T12:21:50.118Z,9.09
2018-11-03T12:22:50.374Z,9.09
2018-11-03T12:23:50.990Z,9.08
2018-11-03T12:24:50.424Z,9.08
2018-11-03T12:25:50.696Z,9.05
2018-11-03T12:26:50.328Z,9.01
2018-11-03T12:27:50.573Z,9.04
2018-11-03T12:28:50.575Z,8.97
2018-11-03T12:29:50.288Z,9.03
2018-11-03T12:30:50.560Z,8.97
2018-11-03T12:31:50.528Z,9.01
2018-11-03T12:32:50.547Z,9
2018-11-03T12:33:49.997Z,9.01
2018-11-03T12:34:50.230Z,8.98
2018-11-03T12:35:50.216Z,9.01
2018-11-03T12:36:50.474Z,9.03
2018-11-03T12:37:50.495Z,8.98
2018-11-03T12:38:50.457Z,9.01
2018-11-03T12:39:50.441Z,9.08
2018-11-03T12:40:50.359Z,9.17
2018-11-03T12:41:50.428Z,9.12
2018-11-03T12:42:50.397Z,9.14
2018-11-03T12:43:50.896Z,9.04
2018-11-03T12:44:50.374Z,8.97
2018-11-03T12:45:49.835Z,8.94
2018-11-03T12:46:50.088Z,9.03
2018-11-03T12:47:50.344Z,9.04
2018-11-03T12:48:50.358Z,9
2018-11-03T12:49:50.072Z,9.09
2018-11-03T12:50:50.037Z,9.05
2018-11-03T12:51:50.290Z,9.01
2018-11-03T12:52:50.290Z,9.03
2018-11-03T12:53:50.364Z,9.03
2018-11-03T12:54:50.264Z,9.05
2018-11-03T12:55:49.985Z,9.01
2018-11-03T12:56:49.968Z,9.05
2018-11-03T12:57:50.224Z,9.05
2018-11-03T12:58:49.949Z,9.04
2018-11-03T12:59:49.932Z,9.05
2018-11-03T13:00:50.187Z,9.04
2018-11-03T13:01:50.239Z,9.01
2018-11-03T13:02:49.635Z,9.05
2018-11-03T13:03:50.415Z,9.05
2018-11-03T13:04:49.943Z,9.04
2018-11-03T13:05:49.911Z,9.04
2018-11-03T13:06:50.122Z,9.01
2018-11-03T13:07:49.839Z,9.01
2018-11-03T13:08:50.088Z,9
2018-11-03T13:09:49.888Z,9
2018-11-03T13:10:49.541Z,9.04
2018-11-03T13:11:49.788Z,9.04
2018-11-03T13:12:49.779Z,9.04
2018-11-03T13:13:50.025Z,8.98
2018-11-03T13:14:49.749Z,8.97
2018-11-03T13:15:49.944Z,9.01
2018-11-03T13:16:49.983Z,9.05
2018-11-03T13:17:49.713Z,9.01
2018-11-03T13:18:49.818Z,9
2018-11-03T13:19:49.699Z,9.12
2018-11-03T13:20:49.701Z,9.03